Albany, New York
Traffic Map
Current Weather Conditions
Albany, New York
Broken Clouds Light Rain
Broken Clouds

Feels Like: 4°
Wind Chill: Ceiling: 6000
Heat Index: Visibility: 10mi
Dew Point: Wind: 12mph
Humidity: 74% Direction: 310° (NW)
Pressure: 29.54in Gusts: 20mph
Raw Report DataKALB 230751Z 31010G17KT 10SM -RA FEW022 BKN060 BKN110 07/03 A2954 RMK AO2 RAB02 SLP003 PCPN VRY LGT P0000 T00720028
Traffic Incident Summary
Active as of:
Severity:
Category:
InformationThere was an issue retrieving the traffic information for this location. Please try a different location or try again shortly.
Advertisements
At Last! Intellicast now available for iPhone and Android